createdAt,value
2022-11-16T00:00:19.185Z,594.13
2022-11-16T00:02:52.293Z,565.55
2022-11-16T00:05:27.997Z,393.85
2022-11-16T00:07:58.552Z,640.20
2022-11-16T00:10:28.524Z,583.78
2022-11-16T00:12:58.829Z,402.10
2022-11-16T00:15:29.368Z,921.72
2022-11-16T00:18:02.067Z,692.03
2022-11-16T00:20:32.079Z,690.03
2022-11-16T00:23:02.130Z,496.42
2022-11-16T00:25:32.154Z,582.22
2022-11-16T00:28:02.143Z,701.20
2022-11-16T00:30:44.673Z,450.00
2022-11-16T00:33:19.287Z,427.67
2022-11-16T00:35:49.594Z,652.72
2022-11-16T00:38:25.102Z,470.80
2022-11-16T00:40:55.257Z,475.35
2022-11-16T00:43:25.665Z,459.08
2022-11-16T00:45:56.691Z,546.55
2022-11-16T00:48:29.967Z,436.42
2022-11-16T00:51:00.684Z,613.88
2022-11-16T00:53:31.019Z,541.00
2022-11-16T00:56:01.717Z,506.08
2022-11-16T00:58:34.879Z,427.30
2022-11-16T01:01:11.845Z,426.83
2022-11-16T01:03:44.559Z,492.70
2022-11-16T01:06:16.802Z,561.25
2022-11-16T01:08:47.837Z,446.92
2022-11-16T01:11:40.571Z,443.83
2022-11-16T01:14:12.042Z,423.83
2022-11-16T01:16:42.756Z,443.00
2022-11-16T01:19:15.372Z,709.38
2022-11-16T01:21:45.809Z,471.38
2022-11-16T01:24:15.797Z,503.17
2022-11-16T01:26:45.792Z,406.15
2022-11-16T01:29:16.234Z,399.83
2022-11-16T01:31:53.850Z,416.52
2022-11-16T01:34:27.022Z,747.58
2022-11-16T01:37:03.054Z,480.27
2022-11-16T01:39:36.314Z,574.10
2022-11-16T01:42:07.146Z,496.75
2022-11-16T01:45:00.608Z,453.60
2022-11-16T01:47:32.266Z,491.98
2022-11-16T01:50:13.134Z,426.65
2022-11-16T01:52:50.239Z,422.58
2022-11-16T01:55:21.798Z,468.38
2022-11-16T01:58:28.933Z,551.40
2022-11-16T02:01:11.963Z,425.05
2022-11-16T02:03:48.453Z,632.67
2022-11-16T02:06:36.065Z,421.70
2022-11-16T02:09:54.913Z,409.73
2022-11-16T02:13:04.012Z,663.95
2022-11-16T02:15:55.096Z,406.73
2022-11-16T02:18:48.800Z,605.33
2022-11-16T02:21:29.926Z,816.42
2022-11-16T02:24:27.720Z,711.50
2022-11-16T02:27:42.279Z,410.23
2022-11-16T02:30:15.645Z,429.95
2022-11-16T02:32:52.871Z,545.38
2022-11-16T02:35:28.524Z,457.70
2022-11-16T02:38:05.404Z,493.88
2022-11-16T02:40:40.411Z,537.08
2022-11-16T02:43:15.144Z,464.15
2022-11-16T02:45:54.871Z,399.17
2022-11-16T02:48:30.465Z,471.63
2022-11-16T02:51:00.942Z,464.13
2022-11-16T02:53:31.244Z,409.00
2022-11-16T02:56:02.817Z,430.15
2022-11-16T02:58:33.527Z,445.98
2022-11-16T03:01:11.828Z,433.85
2022-11-16T03:03:46.967Z,402.85
2022-11-16T03:06:23.949Z,370.38
2022-11-16T03:09:03.287Z,365.05
2022-11-16T03:11:49.879Z,371.38
2022-11-16T03:14:25.490Z,451.38
2022-11-16T03:17:00.326Z,392.42
2022-11-16T03:19:37.032Z,418.70
2022-11-16T03:22:14.302Z,382.83
2022-11-16T03:24:44.826Z,393.52
2022-11-16T03:27:24.530Z,451.77
2022-11-16T03:30:03.145Z,402.73
2022-11-16T03:32:43.399Z,398.98
2022-11-16T03:35:19.178Z,379.70
2022-11-16T03:37:55.680Z,384.52
2022-11-16T03:40:29.799Z,429.48
2022-11-16T03:43:02.892Z,429.73
2022-11-16T03:45:34.980Z,400.65
2022-11-16T03:48:11.219Z,438.27
2022-11-16T03:50:41.992Z,415.02
2022-11-16T03:53:13.022Z,409.08
2022-11-16T03:55:48.531Z,484.50
2022-11-16T03:58:20.121Z,423.80
2022-11-16T04:00:50.968Z,678.40
2022-11-16T04:03:24.182Z,646.90
2022-11-16T04:06:07.024Z,758.85
2022-11-16T04:08:49.524Z,418.88
2022-11-16T04:11:35.888Z,824.75
2022-11-16T04:14:18.519Z,518.47
2022-11-16T04:17:00.908Z,450.90
2022-11-16T04:19:45.886Z,833.35
2022-11-16T04:22:34.674Z,435.95
2022-11-16T04:25:11.892Z,600.13
2022-11-16T04:27:54.362Z,501.13
2022-11-16T04:30:48.644Z,563.80
2022-11-16T04:33:31.830Z,446.60
2022-11-16T04:36:20.606Z,409.95
2022-11-16T04:38:51.040Z,675.35
2022-11-16T04:41:33.936Z,867.88
2022-11-16T04:44:03.974Z,448.52
2022-11-16T04:46:46.934Z,684.20
2022-11-16T04:49:17.036Z,476.67
2022-11-16T04:51:50.008Z,585.22
2022-11-16T04:54:20.581Z,779.63
2022-11-16T04:56:50.706Z,770.38
2022-11-16T04:59:21.060Z,874.15
2022-11-16T05:02:03.552Z,669.60
2022-11-16T05:04:33.647Z,901.47
2022-11-16T05:07:10.982Z,556.03
2022-11-16T05:09:45.856Z,449.35
2022-11-16T05:12:18.648Z,866.28
2022-11-16T05:14:50.680Z,604.55
2022-11-16T05:17:22.463Z,969.83
2022-11-16T05:20:04.992Z,587.42
2022-11-16T05:22:44.393Z,417.45
2022-11-16T05:25:15.690Z,416.35
2022-11-16T05:27:45.756Z,542.58
2022-11-16T05:30:16.480Z,677.85
2022-11-16T05:32:47.025Z,528.42
2022-11-16T05:35:19.682Z,418.85
2022-11-16T05:37:53.350Z,409.25
2022-11-16T05:40:24.062Z,425.80
2022-11-16T05:43:02.652Z,552.40
2022-11-16T05:45:38.565Z,487.70
2022-11-16T05:48:10.652Z,520.27
2022-11-16T05:50:42.949Z,515.47
2022-11-16T05:53:26.793Z,663.55
2022-11-16T05:55:57.095Z,829.00
2022-11-16T05:58:27.844Z,860.78
2022-11-16T06:00:58.699Z,1104.47
2022-11-16T06:03:31.261Z,677.30
2022-11-16T06:06:03.219Z,412.05
2022-11-16T06:08:37.927Z,1122.20
2022-11-16T06:11:13.591Z,563.85
2022-11-16T06:13:43.743Z,802.55
2022-11-16T06:16:15.384Z,1100.68
2022-11-16T06:18:47.583Z,993.35
2022-11-16T06:21:21.140Z,559.97
2022-11-16T06:23:54.782Z,944.30
2022-11-16T06:26:24.804Z,694.00
2022-11-16T06:28:55.053Z,1078.97
2022-11-16T06:31:26.291Z,741.22
2022-11-16T06:33:58.265Z,867.70
2022-11-16T06:36:31.527Z,930.55
2022-11-16T06:39:05.219Z,713.38
2022-11-16T06:41:41.463Z,478.63
2022-11-16T06:44:13.783Z,624.65
2022-11-16T06:46:54.185Z,474.55
2022-11-16T06:49:24.226Z,524.78
2022-11-16T06:51:56.264Z,519.63
2022-11-16T06:54:29.106Z,523.05
2022-11-16T06:56:59.212Z,468.98
2022-11-16T06:59:29.746Z,446.55
2022-11-16T07:02:01.073Z,507.08
2022-11-16T07:04:35.026Z,485.73
2022-11-16T07:07:05.780Z,536.65
2022-11-16T07:09:40.587Z,557.72
2022-11-16T07:12:11.419Z,541.42
2022-11-16T07:14:45.659Z,527.47
2022-11-16T07:19:48.200Z,497.63
2022-11-16T07:22:18.824Z,505.45
2022-11-16T07:24:52.250Z,530.03
2022-11-16T07:27:24.044Z,611.15
2022-11-16T07:29:55.716Z,586.28
2022-11-16T07:32:40.087Z,717.60
2022-11-16T07:35:18.205Z,718.15
2022-11-16T07:37:48.366Z,687.00
2022-11-16T07:40:22.184Z,677.85
2022-11-16T07:42:52.680Z,683.13
2022-11-16T07:45:36.701Z,700.30
2022-11-16T07:48:10.608Z,703.15
2022-11-16T07:51:04.497Z,681.70
2022-11-16T07:53:38.229Z,639.20
2022-11-16T07:56:12.303Z,593.55
2022-11-16T07:58:43.936Z,594.63
2022-11-16T08:01:15.976Z,560.45
2022-11-16T08:03:48.953Z,546.67
2022-11-16T08:06:22.169Z,557.67
2022-11-16T08:08:58.314Z,524.20
2022-11-16T08:11:32.092Z,501.20
2022-11-16T08:14:02.068Z,498.20
2022-11-16T08:16:33.485Z,503.42
2022-11-16T08:19:11.791Z,489.98
2022-11-16T08:21:41.930Z,491.05
2022-11-16T08:24:12.771Z,488.90
2022-11-16T08:26:47.838Z,468.02
2022-11-16T08:29:18.681Z,469.75
2022-11-16T08:31:53.073Z,437.52
2022-11-16T08:34:25.009Z,430.17
2022-11-16T08:37:00.524Z,451.48
2022-11-16T08:39:40.566Z,445.17
2022-11-16T08:42:14.574Z,446.90
2022-11-16T08:44:49.590Z,423.55
2022-11-16T08:47:22.539Z,395.43
2022-11-16T08:49:56.482Z,391.77
2022-11-16T08:52:29.117Z,393.92
2022-11-16T08:55:00.390Z,370.85
2022-11-16T08:57:33.686Z,374.05
2022-11-16T09:00:09.621Z,375.27
2022-11-16T09:02:39.637Z,375.67
2022-11-16T09:05:12.226Z,365.50
2022-11-16T09:07:44.226Z,355.48
2022-11-16T09:10:15.214Z,323.30
2022-11-16T09:12:48.010Z,302.63
2022-11-16T09:15:19.630Z,299.00
2022-11-16T09:17:54.944Z,298.77
2022-11-16T09:20:26.516Z,272.35
2022-11-16T09:22:56.589Z,294.58
2022-11-16T09:25:26.867Z,279.02
2022-11-16T09:28:00.676Z,252.98
2022-11-16T09:30:31.684Z,246.48
2022-11-16T09:33:02.215Z,234.93
2022-11-16T09:35:32.233Z,241.05
2022-11-16T09:38:02.229Z,215.55
2022-11-16T09:40:36.299Z,213.38
2022-11-16T09:43:18.737Z,207.52
2022-11-16T09:45:56.022Z,196.52
2022-11-16T09:48:27.632Z,204.55
2022-11-16T09:51:01.904Z,190.73
2022-11-16T09:53:36.421Z,201.07
2022-11-16T09:56:10.618Z,205.07
2022-11-16T09:58:51.124Z,201.93
2022-11-16T10:01:27.190Z,194.05
2022-11-16T10:04:03.684Z,202.90
2022-11-16T10:06:43.975Z,200.20
2022-11-16T10:09:16.614Z,200.07
2022-11-16T10:12:12.444Z,215.32
2022-11-16T10:15:13.153Z,201.50
2022-11-16T10:18:12.091Z,212.88
2022-11-16T10:20:56.785Z,215.20
2022-11-16T10:23:38.908Z,202.32
2022-11-16T10:26:21.160Z,201.20
2022-11-16T10:29:05.185Z,236.65
2022-11-16T10:34:23.781Z,205.48
2022-11-16T10:36:54.253Z,223.73
2022-11-16T10:39:24.897Z,229.02
2022-11-16T10:41:55.093Z,232.50
2022-11-16T10:44:33.243Z,234.95
2022-11-16T10:47:07.658Z,223.98
2022-11-16T10:49:49.675Z,212.30
2022-11-16T10:52:19.717Z,202.65
2022-11-16T10:54:49.881Z,206.00
2022-11-16T10:57:20.062Z,211.52
2022-11-16T10:59:53.416Z,205.20
2022-11-16T11:02:35.428Z,201.40
2022-11-16T11:05:17.197Z,218.65
2022-11-16T11:07:58.337Z,209.82
2022-11-16T11:10:34.947Z,214.90
2022-11-16T11:13:25.841Z,197.57
2022-11-16T11:16:15.387Z,193.35
2022-11-16T11:18:45.387Z,196.73
2022-11-16T11:21:24.502Z,193.50
2022-11-16T11:24:10.620Z,195.95
2022-11-16T11:26:52.366Z,211.65
2022-11-16T11:29:27.940Z,226.18
2022-11-16T11:32:00.901Z,227.73
2022-11-16T11:34:33.542Z,221.20
2022-11-16T11:37:08.754Z,209.10
2022-11-16T11:39:39.938Z,249.93
2022-11-16T11:42:23.825Z,218.95
2022-11-16T11:45:01.350Z,225.98
2022-11-16T11:48:02.191Z,201.10
2022-11-16T11:50:53.804Z,208.80
2022-11-16T11:53:42.197Z,182.90
2022-11-16T11:56:15.113Z,170.18
2022-11-16T11:58:46.628Z,171.05
2022-11-16T12:01:50.555Z,146.95
2022-11-16T12:04:45.540Z,146.15
2022-11-16T12:07:25.356Z,138.27
2022-11-16T12:10:07.397Z,136.43
2022-11-16T12:12:50.285Z,135.95
2022-11-16T12:15:41.805Z,145.38
2022-11-16T12:18:28.882Z,146.52
2022-11-16T12:21:08.103Z,134.50
2022-11-16T12:23:56.971Z,136.60
2022-11-16T12:26:43.590Z,137.52
2022-11-16T12:29:27.042Z,138.50
2022-11-16T12:32:18.565Z,129.90
2022-11-16T12:35:01.528Z,125.57
2022-11-16T12:37:41.817Z,121.60
2022-11-16T12:40:32.038Z,113.72
2022-11-16T12:43:14.773Z,115.78
2022-11-16T12:46:05.952Z,95.28
2022-11-16T12:49:05.596Z,101.30
2022-11-16T12:51:50.193Z,86.28
2022-11-16T12:55:23.989Z,90.05
2022-11-16T12:57:55.974Z,90.93
2022-11-16T13:00:31.230Z,92.43
2022-11-16T13:03:19.634Z,99.05
2022-11-16T13:06:00.163Z,102.90
2022-11-16T13:08:46.980Z,111.55
2022-11-16T13:11:22.257Z,109.30
2022-11-16T13:13:59.293Z,94.63
2022-11-16T13:16:32.496Z,114.50
2022-11-16T13:19:03.895Z,94.10
2022-11-16T13:21:46.875Z,100.32
2022-11-16T13:24:33.442Z,108.95
2022-11-16T13:27:19.742Z,92.22
2022-11-16T13:29:56.700Z,119.00
2022-11-16T13:32:39.881Z,282.95
2022-11-16T13:35:16.616Z,185.43
2022-11-16T13:37:52.061Z,131.35
2022-11-16T13:40:33.701Z,156.10
2022-11-16T13:43:17.596Z,84.88
2022-11-16T13:48:31.698Z,69.63
2022-11-16T13:51:05.205Z,68.07
2022-11-16T13:56:29.712Z,56.25
2022-11-16T13:59:01.529Z,71.15
2022-11-16T14:01:59.562Z,61.45
2022-11-16T14:04:44.742Z,55.35
2022-11-16T14:07:34.334Z,56.88
2022-11-16T14:10:05.810Z,51.47
2022-11-16T14:13:04.518Z,57.65
2022-11-16T14:15:40.046Z,56.00
2022-11-16T14:18:38.435Z,45.85
2022-11-16T14:21:26.789Z,43.10
2022-11-16T14:24:14.738Z,41.65
2022-11-16T14:26:59.184Z,45.13
2022-11-16T14:29:44.731Z,42.15
2022-11-16T14:32:24.252Z,37.70
2022-11-16T14:34:56.340Z,41.08
2022-11-16T14:37:39.334Z,43.83
2022-11-16T14:40:17.841Z,42.47
2022-11-16T14:43:15.418Z,42.65
2022-11-16T14:45:44.030Z,40.63
2022-11-16T14:48:18.992Z,50.05
2022-11-16T14:51:01.981Z,51.13
2022-11-16T14:53:37.540Z,67.80
2022-11-16T14:56:13.639Z,64.07
2022-11-16T14:58:54.169Z,55.50
2022-11-16T15:01:27.227Z,58.97
2022-11-16T15:04:02.577Z,59.80
2022-11-16T15:06:43.783Z,50.97
2022-11-16T15:09:22.755Z,40.33
2022-11-16T15:12:06.249Z,59.15
2022-11-16T15:14:41.202Z,41.75
2022-11-16T15:17:12.148Z,45.28
2022-11-16T15:19:42.195Z,38.25
2022-11-16T15:22:20.958Z,43.38
2022-11-16T15:25:03.935Z,39.38
2022-11-16T15:27:40.684Z,39.30
2022-11-16T15:30:20.416Z,53.05
2022-11-16T15:32:53.060Z,56.53
2022-11-16T15:35:28.047Z,47.70
2022-11-16T15:38:09.346Z,47.80
2022-11-16T15:40:42.762Z,60.33
2022-11-16T15:43:15.023Z,51.95
2022-11-16T15:45:46.902Z,49.13
2022-11-16T15:48:21.171Z,54.70
2022-11-16T15:51:08.205Z,49.83
2022-11-16T15:53:40.932Z,72.60
2022-11-16T15:56:18.408Z,52.22
2022-11-16T15:58:49.289Z,61.10
2022-11-16T16:01:20.143Z,71.70
2022-11-16T16:03:57.887Z,66.35
2022-11-16T16:06:56.471Z,57.55
2022-11-16T16:09:29.805Z,50.28
2022-11-16T16:12:19.683Z,58.95
2022-11-16T16:14:51.431Z,51.40
2022-11-16T16:17:27.136Z,60.80
2022-11-16T16:19:59.256Z,66.35
2022-11-16T16:22:32.562Z,59.35
2022-11-16T16:25:04.262Z,56.55
2022-11-16T16:27:42.866Z,61.90
2022-11-16T16:30:17.131Z,68.07
2022-11-16T16:32:51.551Z,72.07
2022-11-16T16:35:30.673Z,59.65
2022-11-16T16:38:11.355Z,69.35
2022-11-16T16:40:41.617Z,86.72
2022-11-16T16:43:14.744Z,105.82
2022-11-16T16:45:46.331Z,101.20
2022-11-16T16:48:16.597Z,91.97
2022-11-16T16:50:47.221Z,88.53
2022-11-16T16:53:18.144Z,100.45
2022-11-16T16:55:49.175Z,92.32
2022-11-16T16:58:22.611Z,96.97
2022-11-16T17:03:33.733Z,88.15
2022-11-16T17:06:04.592Z,98.72
2022-11-16T17:08:36.714Z,88.40
2022-11-16T17:11:07.508Z,89.47
2022-11-16T17:13:40.125Z,82.68
2022-11-16T17:16:10.933Z,67.53
2022-11-16T17:18:40.971Z,72.82
2022-11-16T17:21:12.429Z,79.32
2022-11-16T17:23:42.466Z,73.22
2022-11-16T17:26:12.605Z,67.72
2022-11-16T17:28:45.288Z,66.47
2022-11-16T17:31:17.577Z,64.93
2022-11-16T17:33:49.945Z,59.95
2022-11-16T17:36:20.461Z,68.10
2022-11-16T17:38:50.448Z,73.20
2022-11-16T17:41:22.817Z,66.38
2022-11-16T17:43:57.031Z,63.95
2022-11-16T17:46:27.458Z,54.53
2022-11-16T17:48:57.838Z,65.18
2022-11-16T17:51:29.968Z,60.75
2022-11-16T17:54:00.266Z,60.25
2022-11-16T17:56:30.922Z,60.90
2022-11-16T17:59:03.942Z,70.75
2022-11-16T18:01:34.055Z,66.47
2022-11-16T18:04:06.219Z,63.35
2022-11-16T18:06:36.316Z,63.80
2022-11-16T18:09:06.385Z,68.47
2022-11-16T18:11:36.637Z,61.00
2022-11-16T18:14:10.680Z,57.22
2022-11-16T18:16:42.467Z,60.05
2022-11-16T18:19:12.921Z,63.60
2022-11-16T18:21:44.155Z,58.42
2022-11-16T18:24:14.964Z,62.00
2022-11-16T18:26:45.383Z,61.78
2022-11-16T18:29:19.847Z,62.15
2022-11-16T18:31:49.851Z,59.80
2022-11-16T18:34:19.820Z,51.78
2022-11-16T18:36:52.372Z,66.85
2022-11-16T18:39:22.369Z,58.45
2022-11-16T18:41:55.075Z,56.08
2022-11-16T18:44:28.351Z,64.75
2022-11-16T18:46:58.293Z,66.13
2022-11-16T18:49:28.365Z,42.80
2022-11-16T18:51:58.749Z,59.78
2022-11-16T18:54:28.824Z,50.17
2022-11-16T18:56:58.936Z,68.15
2022-11-16T18:59:31.881Z,59.42
2022-11-16T19:02:01.948Z,56.80
2022-11-16T19:04:32.256Z,75.72
2022-11-16T19:07:02.620Z,68.80
2022-11-16T19:09:32.879Z,59.88
2022-11-16T19:12:02.947Z,60.88
2022-11-16T19:14:35.940Z,68.50
2022-11-16T19:17:06.660Z,70.65
2022-11-16T19:19:36.671Z,79.00
2022-11-16T19:22:06.677Z,79.90
2022-11-16T19:24:37.001Z,72.18
2022-11-16T19:27:07.118Z,82.88
2022-11-16T19:29:39.881Z,123.90
2022-11-16T19:32:09.938Z,114.22
2022-11-16T19:34:40.290Z,86.32
2022-11-16T19:37:10.867Z,73.72
2022-11-16T19:39:40.852Z,66.63
2022-11-16T19:42:11.222Z,73.72
2022-11-16T19:44:43.805Z,55.13
2022-11-16T19:47:13.846Z,61.40
2022-11-16T19:49:43.899Z,73.05
2022-11-16T19:52:14.343Z,65.53
2022-11-16T19:54:44.486Z,71.63
2022-11-16T19:57:15.792Z,67.03
2022-11-16T19:59:48.600Z,78.55
2022-11-16T20:02:18.575Z,120.13
2022-11-16T20:04:48.733Z,75.95
2022-11-16T20:07:20.052Z,63.42
2022-11-16T20:09:53.337Z,65.30
2022-11-16T20:12:25.160Z,77.47
2022-11-16T20:14:57.726Z,73.50
2022-11-16T20:17:27.799Z,54.63
2022-11-16T20:19:58.034Z,53.22
2022-11-16T20:22:28.023Z,47.83
2022-11-16T20:24:58.565Z,47.13
2022-11-16T20:27:28.600Z,52.13
2022-11-16T20:30:06.489Z,51.30
2022-11-16T20:32:39.210Z,44.17
2022-11-16T20:35:10.486Z,49.25
2022-11-16T20:37:43.285Z,50.13
2022-11-16T20:40:14.666Z,46.85
2022-11-16T20:42:45.209Z,54.63
2022-11-16T20:45:20.276Z,53.67
2022-11-16T20:47:50.367Z,60.22
2022-11-16T20:50:20.534Z,56.55
2022-11-16T20:52:52.814Z,60.92
2022-11-16T20:55:23.036Z,49.50
2022-11-16T20:57:53.020Z,45.10
2022-11-16T21:00:28.116Z,47.67
2022-11-16T21:02:58.488Z,49.97
2022-11-16T21:05:28.485Z,50.17
2022-11-16T21:07:59.719Z,49.83
2022-11-16T21:10:31.213Z,46.17
2022-11-16T21:13:13.579Z,48.50
2022-11-16T21:15:46.709Z,55.28
2022-11-16T21:18:17.010Z,59.53
2022-11-16T21:20:46.981Z,52.20
2022-11-16T21:23:16.957Z,60.78
2022-11-16T21:25:47.340Z,50.13
2022-11-16T21:28:20.184Z,58.65
2022-11-16T21:31:04.582Z,49.92
2022-11-16T21:33:35.373Z,57.40
2022-11-16T21:36:07.111Z,60.35
2022-11-16T21:38:37.584Z,62.80
2022-11-16T21:41:08.454Z,54.60
2022-11-16T21:43:40.445Z,56.75
2022-11-16T21:46:14.388Z,54.67
2022-11-16T21:48:44.914Z,56.33
2022-11-16T21:51:16.700Z,57.20
2022-11-16T21:53:47.276Z,52.80
2022-11-16T21:56:19.336Z,51.88
2022-11-16T21:58:50.060Z,60.33
2022-11-16T22:01:23.425Z,54.67
2022-11-16T22:04:06.183Z,43.25
2022-11-16T22:06:48.678Z,52.22
2022-11-16T22:09:18.770Z,56.42
2022-11-16T22:11:48.831Z,54.05
2022-11-16T22:14:18.877Z,48.53
2022-11-16T22:16:53.757Z,53.67
2022-11-16T22:19:23.896Z,61.33
2022-11-16T22:21:53.941Z,64.13
2022-11-16T22:24:24.057Z,60.85
2022-11-16T22:26:54.273Z,57.97
2022-11-16T22:29:24.468Z,60.92
2022-11-16T22:31:58.659Z,59.00
2022-11-16T22:34:28.774Z,68.82
2022-11-16T22:36:58.847Z,67.22
2022-11-16T22:39:28.850Z,65.80
2022-11-16T22:41:58.996Z,62.28
2022-11-16T22:44:29.037Z,65.18
2022-11-16T22:47:01.873Z,64.05
2022-11-16T22:49:31.867Z,68.53
2022-11-16T22:52:03.323Z,65.30
2022-11-16T22:54:34.777Z,70.20
2022-11-16T22:57:04.962Z,78.90
2022-11-16T22:59:35.087Z,62.40
2022-11-16T23:02:08.677Z,71.47
2022-11-16T23:04:38.903Z,65.18
2022-11-16T23:07:08.956Z,72.50
2022-11-16T23:09:38.973Z,67.95
2022-11-16T23:12:21.727Z,78.63
2022-11-16T23:15:04.156Z,66.00
2022-11-16T23:17:37.037Z,76.70
2022-11-16T23:20:21.193Z,80.10
2022-11-16T23:23:05.936Z,67.60
2022-11-16T23:25:48.619Z,74.32
2022-11-16T23:28:21.052Z,76.65
2022-11-16T23:30:51.595Z,79.28
2022-11-16T23:33:44.040Z,89.38
2022-11-16T23:36:14.764Z,88.60
2022-11-16T23:38:44.744Z,92.70
2022-11-16T23:41:27.106Z,99.93
2022-11-16T23:44:03.138Z,98.30
2022-11-16T23:46:36.849Z,99.60
2022-11-16T23:49:09.471Z,110.82
2022-11-16T23:51:39.466Z,113.13
2022-11-16T23:54:09.614Z,101.28
2022-11-16T23:56:39.836Z,97.88
2022-11-16T23:59:09.989Z,95.05
